sensor_id;sensor_type;location;lat;lon;timestamp;P1;durP1;ratioP1;P2;durP2;ratioP2
19566;SDS011;9930;49.240;8.548;2023-06-22T00:02:18;4.38;;;3.97;;
19566;SDS011;9930;49.240;8.548;2023-06-22T00:04:46;4.50;;;4.10;;
19566;SDS011;9930;49.240;8.548;2023-06-22T00:07:12;4.18;;;3.88;;
19566;SDS011;9930;49.240;8.548;2023-06-22T00:09:37;4.60;;;4.20;;
19566;SDS011;9930;49.240;8.548;2023-06-22T00:12:03;4.60;;;4.22;;
19566;SDS011;9930;49.240;8.548;2023-06-22T00:14:30;4.07;;;3.78;;
19566;SDS011;9930;49.240;8.548;2023-06-22T00:16:55;4.38;;;3.97;;
19566;SDS011;9930;49.240;8.548;2023-06-22T00:19:22;6.03;;;3.88;;
19566;SDS011;9930;49.240;8.548;2023-06-22T00:21:48;4.05;;;3.75;;
19566;SDS011;9930;49.240;8.548;2023-06-22T00:24:18;4.22;;;3.85;;
19566;SDS011;9930;49.240;8.548;2023-06-22T00:26:45;4.03;;;3.72;;
19566;SDS011;9930;49.240;8.548;2023-06-22T00:29:12;4.05;;;3.75;;
19566;SDS011;9930;49.240;8.548;2023-06-22T00:31:40;4.07;;;3.70;;
19566;SDS011;9930;49.240;8.548;2023-06-22T00:34:10;4.65;;;4.30;;
19566;SDS011;9930;49.240;8.548;2023-06-22T00:36:38;4.47;;;4.18;;
19566;SDS011;9930;49.240;8.548;2023-06-22T00:39:05;4.40;;;4.00;;
19566;SDS011;9930;49.240;8.548;2023-06-22T00:41:33;4.68;;;4.28;;
19566;SDS011;9930;49.240;8.548;2023-06-22T00:44:01;4.55;;;4.15;;
19566;SDS011;9930;49.240;8.548;2023-06-22T00:46:31;4.72;;;4.32;;
19566;SDS011;9930;49.240;8.548;2023-06-22T00:48:57;4.65;;;4.25;;
19566;SDS011;9930;49.240;8.548;2023-06-22T00:51:26;5.03;;;4.53;;
19566;SDS011;9930;49.240;8.548;2023-06-22T00:53:52;5.03;;;4.53;;
19566;SDS011;9930;49.240;8.548;2023-06-22T00:56:18;5.53;;;4.75;;
19566;SDS011;9930;49.240;8.548;2023-06-22T00:58:45;10.40;;;5.20;;
19566;SDS011;9930;49.240;8.548;2023-06-22T01:01:13;5.43;;;4.68;;
19566;SDS011;9930;49.240;8.548;2023-06-22T01:03:39;5.65;;;4.97;;
19566;SDS011;9930;49.240;8.548;2023-06-22T01:06:08;5.05;;;4.60;;
19566;SDS011;9930;49.240;8.548;2023-06-22T01:08:51;5.45;;;4.93;;
19566;SDS011;9930;49.240;8.548;2023-06-22T01:11:41;4.95;;;4.43;;
19566;SDS011;9930;49.240;8.548;2023-06-22T01:17:14;4.90;;;4.38;;
19566;SDS011;9930;49.240;8.548;2023-06-22T01:19:46;5.45;;;4.90;;
19566;SDS011;9930;49.240;8.548;2023-06-22T01:22:21;4.63;;;4.22;;
19566;SDS011;9930;49.240;8.548;2023-06-22T01:27:53;4.47;;;4.10;;
19566;SDS011;9930;49.240;8.548;2023-06-22T01:30:30;4.90;;;4.50;;
19566;SDS011;9930;49.240;8.548;2023-06-22T01:32:59;4.90;;;4.53;;
19566;SDS011;9930;49.240;8.548;2023-06-22T01:35:31;5.68;;;5.13;;
19566;SDS011;9930;49.240;8.548;2023-06-22T01:37:57;5.60;;;5.10;;
19566;SDS011;9930;49.240;8.548;2023-06-22T01:40:24;5.13;;;4.72;;
19566;SDS011;9930;49.240;8.548;2023-06-22T01:42:53;5.70;;;5.20;;
19566;SDS011;9930;49.240;8.548;2023-06-22T01:45:21;5.07;;;4.50;;
19566;SDS011;9930;49.240;8.548;2023-06-22T01:47:48;5.85;;;5.25;;
19566;SDS011;9930;49.240;8.548;2023-06-22T01:50:17;5.20;;;4.80;;
19566;SDS011;9930;49.240;8.548;2023-06-22T01:52:42;5.40;;;4.90;;
19566;SDS011;9930;49.240;8.548;2023-06-22T01:55:11;5.82;;;5.22;;
19566;SDS011;9930;49.240;8.548;2023-06-22T01:57:38;4.93;;;4.53;;
19566;SDS011;9930;49.240;8.548;2023-06-22T02:00:12;6.07;;;5.25;;
19566;SDS011;9930;49.240;8.548;2023-06-22T02:05:37;5.75;;;4.93;;
19566;SDS011;9930;49.240;8.548;2023-06-22T02:08:19;5.68;;;5.18;;
19566;SDS011;9930;49.240;8.548;2023-06-22T02:10:53;5.20;;;4.80;;
19566;SDS011;9930;49.240;8.548;2023-06-22T02:13:23;4.85;;;4.45;;
19566;SDS011;9930;49.240;8.548;2023-06-22T02:15:50;5.72;;;5.22;;
19566;SDS011;9930;49.240;8.548;2023-06-22T02:18:19;5.80;;;5.20;;
19566;SDS011;9930;49.240;8.548;2023-06-22T02:20:45;5.78;;;5.28;;
19566;SDS011;9930;49.240;8.548;2023-06-22T02:23:11;6.10;;;5.60;;
19566;SDS011;9930;49.240;8.548;2023-06-22T02:25:41;5.43;;;4.93;;
19566;SDS011;9930;49.240;8.548;2023-06-22T02:28:11;5.80;;;5.30;;
19566;SDS011;9930;49.240;8.548;2023-06-22T02:30:38;5.97;;;5.47;;
19566;SDS011;9930;49.240;8.548;2023-06-22T02:33:05;5.40;;;4.90;;
19566;SDS011;9930;49.240;8.548;2023-06-22T02:35:30;6.10;;;5.50;;
19566;SDS011;9930;49.240;8.548;2023-06-22T02:37:57;5.97;;;5.47;;
19566;SDS011;9930;49.240;8.548;2023-06-22T02:40:25;5.25;;;4.75;;
19566;SDS011;9930;49.240;8.548;2023-06-22T02:42:54;6.32;;;5.72;;
19566;SDS011;9930;49.240;8.548;2023-06-22T02:45:20;5.65;;;5.20;;
19566;SDS011;9930;49.240;8.548;2023-06-22T02:47:48;5.90;;;5.32;;
19566;SDS011;9930;49.240;8.548;2023-06-22T02:50:14;5.50;;;5.00;;
19566;SDS011;9930;49.240;8.548;2023-06-22T02:52:42;4.95;;;4.55;;
19566;SDS011;9930;49.240;8.548;2023-06-22T02:55:08;5.60;;;5.10;;
19566;SDS011;9930;49.240;8.548;2023-06-22T02:57:35;5.32;;;4.93;;
19566;SDS011;9930;49.240;8.548;2023-06-22T03:00:02;5.43;;;5.03;;
19566;SDS011;9930;49.240;8.548;2023-06-22T03:02:45;5.85;;;5.35;;
19566;SDS011;9930;49.240;8.548;2023-06-22T03:05:15;6.43;;;5.82;;
19566;SDS011;9930;49.240;8.548;2023-06-22T03:07:43;5.50;;;5.10;;
19566;SDS011;9930;49.240;8.548;2023-06-22T03:10:13;6.30;;;5.70;;
19566;SDS011;9930;49.240;8.548;2023-06-22T03:12:41;6.60;;;5.78;;
19566;SDS011;9930;49.240;8.548;2023-06-22T03:15:08;6.82;;;6.00;;
19566;SDS011;9930;49.240;8.548;2023-06-22T03:17:41;7.05;;;6.45;;
19566;SDS011;9930;49.240;8.548;2023-06-22T03:20:07;6.75;;;6.15;;
19566;SDS011;9930;49.240;8.548;2023-06-22T03:22:37;6.85;;;6.25;;
19566;SDS011;9930;49.240;8.548;2023-06-22T03:25:07;6.00;;;5.50;;
19566;SDS011;9930;49.240;8.548;2023-06-22T03:27:42;6.50;;;5.93;;
19566;SDS011;9930;49.240;8.548;2023-06-22T03:30:14;6.38;;;5.88;;
19566;SDS011;9930;49.240;8.548;2023-06-22T03:32:39;7.15;;;6.55;;
19566;SDS011;9930;49.240;8.548;2023-06-22T03:35:05;6.25;;;5.75;;
19566;SDS011;9930;49.240;8.548;2023-06-22T03:37:32;6.72;;;6.00;;
19566;SDS011;9930;49.240;8.548;2023-06-22T03:39:58;6.88;;;5.55;;
19566;SDS011;9930;49.240;8.548;2023-06-22T03:42:23;6.70;;;6.13;;
19566;SDS011;9930;49.240;8.548;2023-06-22T03:44:51;6.00;;;5.53;;
19566;SDS011;9930;49.240;8.548;2023-06-22T03:47:17;6.22;;;5.63;;
19566;SDS011;9930;49.240;8.548;2023-06-22T03:49:45;6.15;;;5.63;;
19566;SDS011;9930;49.240;8.548;2023-06-22T03:52:11;7.03;;;6.32;;
19566;SDS011;9930;49.240;8.548;2023-06-22T03:54:37;6.00;;;5.50;;
19566;SDS011;9930;49.240;8.548;2023-06-22T03:57:02;6.15;;;5.65;;
19566;SDS011;9930;49.240;8.548;2023-06-22T03:59:31;6.22;;;5.72;;
19566;SDS011;9930;49.240;8.548;2023-06-22T04:01:59;6.25;;;5.65;;
19566;SDS011;9930;49.240;8.548;2023-06-22T04:04:25;5.75;;;5.25;;
19566;SDS011;9930;49.240;8.548;2023-06-22T04:06:53;6.03;;;5.43;;
19566;SDS011;9930;49.240;8.548;2023-06-22T04:09:23;5.90;;;5.40;;
19566;SDS011;9930;49.240;8.548;2023-06-22T04:11:51;5.95;;;5.47;;
19566;SDS011;9930;49.240;8.548;2023-06-22T04:14:17;5.50;;;5.03;;
19566;SDS011;9930;49.240;8.548;2023-06-22T04:16:42;5.43;;;5.03;;
19566;SDS011;9930;49.240;8.548;2023-06-22T04:19:08;6.10;;;5.60;;
19566;SDS011;9930;49.240;8.548;2023-06-22T04:21:44;5.63;;;5.13;;
19566;SDS011;9930;49.240;8.548;2023-06-22T04:24:11;5.47;;;5.07;;
19566;SDS011;9930;49.240;8.548;2023-06-22T04:26:37;5.78;;;5.28;;
19566;SDS011;9930;49.240;8.548;2023-06-22T04:29:07;5.40;;;4.97;;
19566;SDS011;9930;49.240;8.548;2023-06-22T04:31:36;5.82;;;5.32;;
19566;SDS011;9930;49.240;8.548;2023-06-22T04:34:03;5.68;;;5.13;;
19566;SDS011;9930;49.240;8.548;2023-06-22T04:36:37;5.60;;;4.88;;
19566;SDS011;9930;49.240;8.548;2023-06-22T04:39:14;5.15;;;4.70;;
19566;SDS011;9930;49.240;8.548;2023-06-22T04:41:45;5.30;;;4.80;;
19566;SDS011;9930;49.240;8.548;2023-06-22T04:44:14;4.85;;;4.47;;
19566;SDS011;9930;49.240;8.548;2023-06-22T04:46:51;5.28;;;4.88;;
19566;SDS011;9930;49.240;8.548;2023-06-22T04:49:28;5.28;;;4.78;;
19566;SDS011;9930;49.240;8.548;2023-06-22T04:52:01;5.28;;;4.88;;
19566;SDS011;9930;49.240;8.548;2023-06-22T04:54:32;5.18;;;4.78;;
19566;SDS011;9930;49.240;8.548;2023-06-22T04:57:00;4.95;;;4.55;;
19566;SDS011;9930;49.240;8.548;2023-06-22T04:59:27;5.32;;;4.82;;
19566;SDS011;9930;49.240;8.548;2023-06-22T05:01:59;5.70;;;5.30;;
19566;SDS011;9930;49.240;8.548;2023-06-22T05:04:27;5.22;;;4.82;;
19566;SDS011;9930;49.240;8.548;2023-06-22T05:06:58;6.18;;;5.57;;
19566;SDS011;9930;49.240;8.548;2023-06-22T05:09:27;5.50;;;5.00;;
19566;SDS011;9930;49.240;8.548;2023-06-22T05:11:55;5.65;;;5.15;;
19566;SDS011;9930;49.240;8.548;2023-06-22T05:14:26;5.57;;;5.07;;
19566;SDS011;9930;49.240;8.548;2023-06-22T05:16:52;5.00;;;4.70;;
19566;SDS011;9930;49.240;8.548;2023-06-22T05:19:18;5.43;;;4.93;;
19566;SDS011;9930;49.240;8.548;2023-06-22T05:21:44;5.05;;;4.65;;
19566;SDS011;9930;49.240;8.548;2023-06-22T05:24:10;5.40;;;5.00;;
19566;SDS011;9930;49.240;8.548;2023-06-22T05:26:36;5.30;;;4.90;;
19566;SDS011;9930;49.240;8.548;2023-06-22T05:29:04;5.35;;;4.90;;
19566;SDS011;9930;49.240;8.548;2023-06-22T05:31:30;4.80;;;4.40;;
19566;SDS011;9930;49.240;8.548;2023-06-22T05:33:56;4.80;;;4.40;;
19566;SDS011;9930;49.240;8.548;2023-06-22T05:36:21;4.82;;;4.43;;
19566;SDS011;9930;49.240;8.548;2023-06-22T05:38:53;4.88;;;4.47;;
19566;SDS011;9930;49.240;8.548;2023-06-22T05:41:21;5.57;;;5.10;;
19566;SDS011;9930;49.240;8.548;2023-06-22T05:43:47;5.30;;;4.90;;
19566;SDS011;9930;49.240;8.548;2023-06-22T05:46:13;5.28;;;4.90;;
19566;SDS011;9930;49.240;8.548;2023-06-22T05:48:41;5.40;;;5.00;;
19566;SDS011;9930;49.240;8.548;2023-06-22T05:51:07;4.93;;;4.53;;
19566;SDS011;9930;49.240;8.548;2023-06-22T05:53:33;5.80;;;5.30;;
19566;SDS011;9930;49.240;8.548;2023-06-22T05:55:58;5.13;;;4.72;;
19566;SDS011;9930;49.240;8.548;2023-06-22T05:58:24;5.28;;;4.78;;
19566;SDS011;9930;49.240;8.548;2023-06-22T06:00:52;6.00;;;5.40;;
19566;SDS011;9930;49.240;8.548;2023-06-22T06:03:20;6.95;;;5.72;;
19566;SDS011;9930;49.240;8.548;2023-06-22T06:05:46;5.30;;;4.90;;
19566;SDS011;9930;49.240;8.548;2023-06-22T06:08:17;5.40;;;4.97;;
19566;SDS011;9930;49.240;8.548;2023-06-22T06:10:43;5.25;;;4.85;;
19566;SDS011;9930;49.240;8.548;2023-06-22T06:13:10;5.40;;;4.90;;
19566;SDS011;9930;49.240;8.548;2023-06-22T06:15:36;5.18;;;4.78;;
19566;SDS011;9930;49.240;8.548;2023-06-22T06:18:04;5.18;;;4.85;;
19566;SDS011;9930;49.240;8.548;2023-06-22T06:20:31;5.50;;;5.05;;
19566;SDS011;9930;49.240;8.548;2023-06-22T06:22:57;5.28;;;4.80;;
19566;SDS011;9930;49.240;8.548;2023-06-22T06:25:23;5.50;;;5.10;;
19566;SDS011;9930;49.240;8.548;2023-06-22T06:27:49;4.88;;;4.45;;
19566;SDS011;9930;49.240;8.548;2023-06-22T06:30:18;5.47;;;5.07;;
19566;SDS011;9930;49.240;8.548;2023-06-22T06:32:47;5.55;;;5.03;;
19566;SDS011;9930;49.240;8.548;2023-06-22T06:35:15;5.35;;;4.95;;
19566;SDS011;9930;49.240;8.548;2023-06-22T06:37:42;5.18;;;4.68;;
19566;SDS011;9930;49.240;8.548;2023-06-22T06:40:11;5.07;;;4.68;;
19566;SDS011;9930;49.240;8.548;2023-06-22T06:42:41;5.50;;;5.10;;
19566;SDS011;9930;49.240;8.548;2023-06-22T06:45:20;5.72;;;5.22;;
19566;SDS011;9930;49.240;8.548;2023-06-22T06:47:50;5.70;;;5.20;;
19566;SDS011;9930;49.240;8.548;2023-06-22T06:50:17;5.32;;;4.93;;
19566;SDS011;9930;49.240;8.548;2023-06-22T06:52:44;5.07;;;4.68;;
19566;SDS011;9930;49.240;8.548;2023-06-22T06:55:10;4.75;;;4.43;;
19566;SDS011;9930;49.240;8.548;2023-06-22T06:57:40;5.00;;;4.70;;
19566;SDS011;9930;49.240;8.548;2023-06-22T07:00:13;5.75;;;5.25;;
19566;SDS011;9930;49.240;8.548;2023-06-22T07:02:43;5.15;;;4.60;;
19566;SDS011;9930;49.240;8.548;2023-06-22T07:05:14;5.38;;;4.95;;
19566;SDS011;9930;49.240;8.548;2023-06-22T07:07:40;5.28;;;4.88;;
19566;SDS011;9930;49.240;8.548;2023-06-22T07:10:09;5.35;;;4.95;;
19566;SDS011;9930;49.240;8.548;2023-06-22T07:12:40;4.72;;;4.32;;
19566;SDS011;9930;49.240;8.548;2023-06-22T07:15:10;5.50;;;5.00;;
19566;SDS011;9930;49.240;8.548;2023-06-22T07:17:44;5.32;;;4.93;;
19566;SDS011;9930;49.240;8.548;2023-06-22T07:20:10;5.60;;;5.10;;
19566;SDS011;9930;49.240;8.548;2023-06-22T07:22:42;5.50;;;5.10;;
19566;SDS011;9930;49.240;8.548;2023-06-22T07:25:12;5.05;;;4.65;;
19566;SDS011;9930;49.240;8.548;2023-06-22T07:27:46;5.68;;;5.20;;
19566;SDS011;9930;49.240;8.548;2023-06-22T07:30:28;5.05;;;4.65;;
19566;SDS011;9930;49.240;8.548;2023-06-22T07:32:58;5.72;;;5.30;;
19566;SDS011;9930;49.240;8.548;2023-06-22T07:35:28;5.43;;;4.88;;
19566;SDS011;9930;49.240;8.548;2023-06-22T07:37:59;5.10;;;4.70;;
19566;SDS011;9930;49.240;8.548;2023-06-22T07:40:28;5.20;;;4.72;;
19566;SDS011;9930;49.240;8.548;2023-06-22T07:42:54;5.07;;;4.75;;
19566;SDS011;9930;49.240;8.548;2023-06-22T07:45:22;5.10;;;4.60;;
19566;SDS011;9930;49.240;8.548;2023-06-22T07:47:47;5.60;;;5.20;;
19566;SDS011;9930;49.240;8.548;2023-06-22T07:50:14;5.18;;;4.78;;
19566;SDS011;9930;49.240;8.548;2023-06-22T07:52:40;5.05;;;4.65;;
19566;SDS011;9930;49.240;8.548;2023-06-22T07:55:08;4.60;;;4.20;;
19566;SDS011;9930;49.240;8.548;2023-06-22T07:57:34;4.65;;;4.25;;
19566;SDS011;9930;49.240;8.548;2023-06-22T08:00:01;5.10;;;4.70;;
19566;SDS011;9930;49.240;8.548;2023-06-22T08:02:40;5.22;;;4.82;;
19566;SDS011;9930;49.240;8.548;2023-06-22T08:05:10;4.78;;;4.38;;
19566;SDS011;9930;49.240;8.548;2023-06-22T08:07:39;4.85;;;4.45;;
19566;SDS011;9930;49.240;8.548;2023-06-22T08:10:10;4.82;;;4.50;;
19566;SDS011;9930;49.240;8.548;2023-06-22T08:12:44;5.07;;;4.68;;
19566;SDS011;9930;49.240;8.548;2023-06-22T08:15:11;5.28;;;4.88;;
19566;SDS011;9930;49.240;8.548;2023-06-22T08:17:40;5.05;;;4.65;;
19566;SDS011;9930;49.240;8.548;2023-06-22T08:20:10;4.68;;;4.28;;
19566;SDS011;9930;49.240;8.548;2023-06-22T08:22:44;5.40;;;5.00;;
19566;SDS011;9930;49.240;8.548;2023-06-22T08:25:10;5.05;;;4.65;;
19566;SDS011;9930;49.240;8.548;2023-06-22T08:27:39;4.90;;;4.47;;
19566;SDS011;9930;49.240;8.548;2023-06-22T08:30:09;4.72;;;4.32;;
19566;SDS011;9930;49.240;8.548;2023-06-22T08:32:36;5.18;;;4.68;;
19566;SDS011;9930;49.240;8.548;2023-06-22T08:35:01;4.95;;;4.53;;
19566;SDS011;9930;49.240;8.548;2023-06-22T08:37:27;5.10;;;4.53;;
19566;SDS011;9930;49.240;8.548;2023-06-22T08:39:59;4.78;;;4.38;;
19566;SDS011;9930;49.240;8.548;2023-06-22T08:42:29;4.80;;;4.40;;
19566;SDS011;9930;49.240;8.548;2023-06-22T08:44:55;4.93;;;4.53;;
19566;SDS011;9930;49.240;8.548;2023-06-22T08:47:21;6.10;;;5.50;;
19566;SDS011;9930;49.240;8.548;2023-06-22T08:49:47;4.88;;;4.47;;
19566;SDS011;9930;49.240;8.548;2023-06-22T08:52:14;4.68;;;4.28;;
19566;SDS011;9930;49.240;8.548;2023-06-22T08:54:40;5.15;;;4.68;;
19566;SDS011;9930;49.240;8.548;2023-06-22T08:57:08;4.55;;;4.25;;
19566;SDS011;9930;49.240;8.548;2023-06-22T08:59:33;4.68;;;4.28;;
19566;SDS011;9930;49.240;8.548;2023-06-22T09:02:01;5.00;;;4.28;;
19566;SDS011;9930;49.240;8.548;2023-06-22T09:04:27;5.00;;;4.50;;
19566;SDS011;9930;49.240;8.548;2023-06-22T09:06:53;4.90;;;4.43;;
19566;SDS011;9930;49.240;8.548;2023-06-22T09:09:18;4.50;;;4.10;;
19566;SDS011;9930;49.240;8.548;2023-06-22T09:11:49;4.25;;;3.85;;
19566;SDS011;9930;49.240;8.548;2023-06-22T09:14:17;4.93;;;4.53;;
19566;SDS011;9930;49.240;8.548;2023-06-22T09:16:43;5.65;;;4.50;;
19566;SDS011;9930;49.240;8.548;2023-06-22T09:19:12;4.90;;;4.43;;
19566;SDS011;9930;49.240;8.548;2023-06-22T09:21:38;4.95;;;4.55;;
19566;SDS011;9930;49.240;8.548;2023-06-22T09:24:08;5.65;;;5.10;;
19566;SDS011;9930;49.240;8.548;2023-06-22T09:26:38;5.68;;;4.30;;
19566;SDS011;9930;49.240;8.548;2023-06-22T09:29:05;5.10;;;4.60;;
19566;SDS011;9930;49.240;8.548;2023-06-22T09:31:31;4.95;;;4.25;;
19566;SDS011;9930;49.240;8.548;2023-06-22T09:33:59;6.20;;;4.60;;
19566;SDS011;9930;49.240;8.548;2023-06-22T09:36:30;4.65;;;4.25;;
19566;SDS011;9930;49.240;8.548;2023-06-22T09:38:55;5.03;;;4.60;;
19566;SDS011;9930;49.240;8.548;2023-06-22T09:41:23;4.80;;;4.40;;
19566;SDS011;9930;49.240;8.548;2023-06-22T09:43:52;4.68;;;4.30;;
19566;SDS011;9930;49.240;8.548;2023-06-22T09:46:18;4.90;;;4.50;;
19566;SDS011;9930;49.240;8.548;2023-06-22T09:48:47;4.97;;;4.55;;
19566;SDS011;9930;49.240;8.548;2023-06-22T09:51:15;4.60;;;4.30;;
19566;SDS011;9930;49.240;8.548;2023-06-22T09:53:41;4.88;;;4.38;;
19566;SDS011;9930;49.240;8.548;2023-06-22T09:56:06;4.70;;;4.30;;
19566;SDS011;9930;49.240;8.548;2023-06-22T09:58:36;4.43;;;4.13;;
19566;SDS011;9930;49.240;8.548;2023-06-22T10:01:01;5.13;;;4.72;;
19566;SDS011;9930;49.240;8.548;2023-06-22T10:03:32;4.47;;;4.00;;
19566;SDS011;9930;49.240;8.548;2023-06-22T10:06:00;5.30;;;4.70;;
19566;SDS011;9930;49.240;8.548;2023-06-22T10:08:30;4.90;;;4.38;;
19566;SDS011;9930;49.240;8.548;2023-06-22T10:10:56;5.43;;;4.88;;
19566;SDS011;9930;49.240;8.548;2023-06-22T10:13:21;5.07;;;4.68;;
19566;SDS011;9930;49.240;8.548;2023-06-22T10:15:47;4.85;;;4.40;;
19566;SDS011;9930;49.240;8.548;2023-06-22T10:18:16;6.50;;;4.90;;
19566;SDS011;9930;49.240;8.548;2023-06-22T10:20:43;4.95;;;4.55;;
19566;SDS011;9930;49.240;8.548;2023-06-22T10:23:12;5.30;;;4.90;;
19566;SDS011;9930;49.240;8.548;2023-06-22T10:25:42;5.07;;;4.68;;
19566;SDS011;9930;49.240;8.548;2023-06-22T10:28:08;5.00;;;4.60;;
19566;SDS011;9930;49.240;8.548;2023-06-22T10:30:37;5.55;;;5.03;;
19566;SDS011;9930;49.240;8.548;2023-06-22T10:33:06;4.80;;;4.40;;
19566;SDS011;9930;49.240;8.548;2023-06-22T10:35:36;4.60;;;4.20;;
19566;SDS011;9930;49.240;8.548;2023-06-22T10:38:02;4.68;;;4.28;;
19566;SDS011;9930;49.240;8.548;2023-06-22T10:40:33;5.18;;;4.60;;
19566;SDS011;9930;49.240;8.548;2023-06-22T10:42:59;4.75;;;4.35;;
19566;SDS011;9930;49.240;8.548;2023-06-22T10:45:29;5.47;;;4.20;;
19566;SDS011;9930;49.240;8.548;2023-06-22T10:47:55;4.60;;;4.20;;
19566;SDS011;9930;49.240;8.548;2023-06-22T10:50:24;4.43;;;4.03;;
19566;SDS011;9930;49.240;8.548;2023-06-22T10:52:50;5.80;;;4.78;;
19566;SDS011;9930;49.240;8.548;2023-06-22T10:55:16;4.72;;;4.32;;
19566;SDS011;9930;49.240;8.548;2023-06-22T10:57:42;4.50;;;4.13;;
19566;SDS011;9930;49.240;8.548;2023-06-22T11:00:12;7.25;;;4.65;;
19566;SDS011;9930;49.240;8.548;2023-06-22T11:02:39;4.88;;;4.40;;
19566;SDS011;9930;49.240;8.548;2023-06-22T11:05:05;4.75;;;4.35;;
19566;SDS011;9930;49.240;8.548;2023-06-22T11:07:31;4.82;;;4.40;;
19566;SDS011;9930;49.240;8.548;2023-06-22T11:09:58;4.55;;;4.15;;
19566;SDS011;9930;49.240;8.548;2023-06-22T11:12:23;4.80;;;4.40;;
19566;SDS011;9930;49.240;8.548;2023-06-22T11:14:51;4.70;;;4.30;;
19566;SDS011;9930;49.240;8.548;2023-06-22T11:17:20;5.35;;;4.40;;
19566;SDS011;9930;49.240;8.548;2023-06-22T11:19:45;4.40;;;4.00;;
19566;SDS011;9930;49.240;8.548;2023-06-22T11:22:11;4.85;;;4.25;;
19566;SDS011;9930;49.240;8.548;2023-06-22T11:24:38;4.70;;;4.30;;
19566;SDS011;9930;49.240;8.548;2023-06-22T11:27:03;5.00;;;4.60;;
19566;SDS011;9930;49.240;8.548;2023-06-22T11:29:31;5.57;;;4.50;;
19566;SDS011;9930;49.240;8.548;2023-06-22T11:32:00;4.85;;;4.45;;
19566;SDS011;9930;49.240;8.548;2023-06-22T11:34:29;4.63;;;4.13;;
19566;SDS011;9930;49.240;8.548;2023-06-22T11:36:57;4.35;;;3.95;;
19566;SDS011;9930;49.240;8.548;2023-06-22T11:39:22;5.10;;;4.43;;
19566;SDS011;9930;49.240;8.548;2023-06-22T11:41:48;5.15;;;4.57;;
19566;SDS011;9930;49.240;8.548;2023-06-22T11:44:14;4.95;;;4.50;;
19566;SDS011;9930;49.240;8.548;2023-06-22T11:46:41;5.47;;;4.95;;
19566;SDS011;9930;49.240;8.548;2023-06-22T11:49:07;5.15;;;4.30;;
19566;SDS011;9930;49.240;8.548;2023-06-22T11:51:35;6.30;;;4.20;;
19566;SDS011;9930;49.240;8.548;2023-06-22T11:54:01;4.10;;;3.70;;
19566;SDS011;9930;49.240;8.548;2023-06-22T11:56:32;4.50;;;4.10;;
19566;SDS011;9930;49.240;8.548;2023-06-22T11:58:58;4.93;;;4.22;;
19566;SDS011;9930;49.240;8.548;2023-06-22T12:01:26;5.13;;;4.55;;
19566;SDS011;9930;49.240;8.548;2023-06-22T12:03:52;4.75;;;4.32;;
19566;SDS011;9930;49.240;8.548;2023-06-22T12:06:17;5.65;;;4.43;;
19566;SDS011;9930;49.240;8.548;2023-06-22T12:08:43;4.50;;;4.10;;
19566;SDS011;9930;49.240;8.548;2023-06-22T12:11:09;4.85;;;4.18;;
19566;SDS011;9930;49.240;8.548;2023-06-22T12:13:35;5.18;;;4.68;;
19566;SDS011;9930;49.240;8.548;2023-06-22T12:16:01;4.53;;;4.13;;
19566;SDS011;9930;49.240;8.548;2023-06-22T12:18:29;4.40;;;4.00;;
19566;SDS011;9930;49.240;8.548;2023-06-22T12:20:54;4.53;;;4.13;;
19566;SDS011;9930;49.240;8.548;2023-06-22T12:23:22;5.13;;;4.25;;
19566;SDS011;9930;49.240;8.548;2023-06-22T12:25:48;6.32;;;4.65;;
19566;SDS011;9930;49.240;8.548;2023-06-22T12:28:16;4.40;;;4.00;;
19566;SDS011;9930;49.240;8.548;2023-06-22T12:30:42;5.50;;;4.97;;
19566;SDS011;9930;49.240;8.548;2023-06-22T12:33:08;4.90;;;4.32;;
19566;SDS011;9930;49.240;8.548;2023-06-22T12:35:35;4.80;;;4.10;;
19566;SDS011;9930;49.240;8.548;2023-06-22T12:38:06;5.45;;;4.28;;
19566;SDS011;9930;49.240;8.548;2023-06-22T12:40:38;5.70;;;4.10;;
19566;SDS011;9930;49.240;8.548;2023-06-22T12:43:06;4.90;;;4.40;;
19566;SDS011;9930;49.240;8.548;2023-06-22T12:45:32;4.63;;;4.18;;
19566;SDS011;9930;49.240;8.548;2023-06-22T12:48:00;5.65;;;4.70;;
19566;SDS011;9930;49.240;8.548;2023-06-22T12:50:26;5.35;;;4.50;;
19566;SDS011;9930;49.240;8.548;2023-06-22T12:52:54;4.50;;;4.10;;
19566;SDS011;9930;49.240;8.548;2023-06-22T12:55:20;4.60;;;4.20;;
19566;SDS011;9930;49.240;8.548;2023-06-22T12:57:46;5.00;;;4.47;;
19566;SDS011;9930;49.240;8.548;2023-06-22T13:00:12;4.85;;;4.22;;
19566;SDS011;9930;49.240;8.548;2023-06-22T13:02:39;5.75;;;4.78;;
19566;SDS011;9930;49.240;8.548;2023-06-22T13:05:09;5.13;;;4.60;;
19566;SDS011;9930;49.240;8.548;2023-06-22T13:07:39;4.38;;;4.07;;
19566;SDS011;9930;49.240;8.548;2023-06-22T13:10:12;6.30;;;4.63;;
19566;SDS011;9930;49.240;8.548;2023-06-22T13:12:39;4.95;;;4.50;;
19566;SDS011;9930;49.240;8.548;2023-06-22T13:15:05;4.85;;;4.45;;
19566;SDS011;9930;49.240;8.548;2023-06-22T13:17:31;5.22;;;4.72;;
19566;SDS011;9930;49.240;8.548;2023-06-22T13:19:57;6.00;;;4.80;;
19566;SDS011;9930;49.240;8.548;2023-06-22T13:22:29;5.90;;;4.50;;
19566;SDS011;9930;49.240;8.548;2023-06-22T13:25:04;5.13;;;4.63;;
19566;SDS011;9930;49.240;8.548;2023-06-22T13:27:31;4.88;;;4.47;;
19566;SDS011;9930;49.240;8.548;2023-06-22T13:29:59;5.05;;;4.47;;
19566;SDS011;9930;49.240;8.548;2023-06-22T13:32:25;7.50;;;5.05;;
19566;SDS011;9930;49.240;8.548;2023-06-22T13:34:52;5.43;;;4.70;;
19566;SDS011;9930;49.240;8.548;2023-06-22T13:37:21;5.55;;;5.00;;
19566;SDS011;9930;49.240;8.548;2023-06-22T13:39:50;5.55;;;5.05;;
19566;SDS011;9930;49.240;8.548;2023-06-22T13:42:15;5.25;;;4.75;;
19566;SDS011;9930;49.240;8.548;2023-06-22T13:44:43;7.55;;;5.43;;
19566;SDS011;9930;49.240;8.548;2023-06-22T13:47:12;5.20;;;4.80;;
19566;SDS011;9930;49.240;8.548;2023-06-22T13:49:42;5.43;;;4.93;;
19566;SDS011;9930;49.240;8.548;2023-06-22T13:52:09;4.85;;;4.43;;
19566;SDS011;9930;49.240;8.548;2023-06-22T13:54:37;5.40;;;4.90;;
19566;SDS011;9930;49.240;8.548;2023-06-22T13:57:03;5.68;;;5.00;;
19566;SDS011;9930;49.240;8.548;2023-06-22T13:59:32;5.80;;;5.20;;
19566;SDS011;9930;49.240;8.548;2023-06-22T14:01:58;5.20;;;4.70;;
19566;SDS011;9930;49.240;8.548;2023-06-22T14:04:25;5.65;;;5.18;;
19566;SDS011;9930;49.240;8.548;2023-06-22T14:06:52;4.72;;;4.32;;
19566;SDS011;9930;49.240;8.548;2023-06-22T14:09:20;5.50;;;5.00;;
19566;SDS011;9930;49.240;8.548;2023-06-22T14:11:49;6.53;;;5.00;;
19566;SDS011;9930;49.240;8.548;2023-06-22T14:14:14;5.35;;;4.85;;
19566;SDS011;9930;49.240;8.548;2023-06-22T14:16:44;6.45;;;5.07;;
19566;SDS011;9930;49.240;8.548;2023-06-22T14:19:09;5.43;;;4.93;;
19566;SDS011;9930;49.240;8.548;2023-06-22T14:21:38;6.03;;;5.43;;
19566;SDS011;9930;49.240;8.548;2023-06-22T14:24:04;6.00;;;5.18;;
19566;SDS011;9930;49.240;8.548;2023-06-22T14:26:32;5.75;;;5.20;;
19566;SDS011;9930;49.240;8.548;2023-06-22T14:29:00;6.07;;;5.50;;
19566;SDS011;9930;49.240;8.548;2023-06-22T14:31:28;5.78;;;5.20;;
19566;SDS011;9930;49.240;8.548;2023-06-22T14:33:57;5.63;;;5.13;;
19566;SDS011;9930;49.240;8.548;2023-06-22T14:36:22;7.38;;;5.60;;
19566;SDS011;9930;49.240;8.548;2023-06-22T14:38:48;6.43;;;5.28;;
19566;SDS011;9930;49.240;8.548;2023-06-22T14:41:14;5.30;;;4.80;;
19566;SDS011;9930;49.240;8.548;2023-06-22T14:43:51;5.85;;;5.22;;
19566;SDS011;9930;49.240;8.548;2023-06-22T14:46:17;7.65;;;5.47;;
19566;SDS011;9930;49.240;8.548;2023-06-22T14:48:46;8.07;;;5.10;;
19566;SDS011;9930;49.240;8.548;2023-06-22T14:51:12;6.32;;;5.72;;
19566;SDS011;9930;49.240;8.548;2023-06-22T14:53:43;6.30;;;4.90;;
19566;SDS011;9930;49.240;8.548;2023-06-22T14:56:13;5.75;;;5.15;;
19566;SDS011;9930;49.240;8.548;2023-06-22T14:58:40;8.15;;;5.47;;
19566;SDS011;9930;49.240;8.548;2023-06-22T15:01:10;5.90;;;5.32;;
19566;SDS011;9930;49.240;8.548;2023-06-22T15:03:42;5.32;;;4.90;;
19566;SDS011;9930;49.240;8.548;2023-06-22T15:06:09;7.38;;;5.13;;
19566;SDS011;9930;49.240;8.548;2023-06-22T15:08:39;5.60;;;5.10;;
19566;SDS011;9930;49.240;8.548;2023-06-22T15:11:08;6.30;;;5.18;;
19566;SDS011;9930;49.240;8.548;2023-06-22T15:13:38;6.80;;;5.05;;
19566;SDS011;9930;49.240;8.548;2023-06-22T15:16:08;5.97;;;5.07;;